sensor_id;sensor_type;location;lat;lon;timestamp;P1;durP1;ratioP1;P2;durP2;ratioP2
51814;SDS011;37874;53.158;6.766;2022-12-18T00:01:29;15.27;;;10.82;;
51814;SDS011;37874;53.158;6.766;2022-12-18T00:04:00;16.23;;;11.20;;
51814;SDS011;37874;53.158;6.766;2022-12-18T00:06:30;14.82;;;10.60;;
51814;SDS011;37874;53.158;6.766;2022-12-18T00:08:58;14.07;;;10.40;;
51814;SDS011;37874;53.158;6.766;2022-12-18T00:11:25;16.52;;;11.20;;
51814;SDS011;37874;53.158;6.766;2022-12-18T00:13:54;15.98;;;10.55;;
51814;SDS011;37874;53.158;6.766;2022-12-18T00:16:22;15.35;;;10.57;;
51814;SDS011;37874;53.158;6.766;2022-12-18T00:18:49;14.32;;;10.75;;
51814;SDS011;37874;53.158;6.766;2022-12-18T00:21:17;17.85;;;11.40;;
51814;SDS011;37874;53.158;6.766;2022-12-18T00:23:44;16.95;;;11.15;;
51814;SDS011;37874;53.158;6.766;2022-12-18T00:26:12;14.20;;;10.35;;
51814;SDS011;37874;53.158;6.766;2022-12-18T00:28:40;15.85;;;11.40;;
51814;SDS011;37874;53.158;6.766;2022-12-18T00:31:06;15.27;;;10.35;;
51814;SDS011;37874;53.158;6.766;2022-12-18T00:33:34;18.33;;;11.43;;
51814;SDS011;37874;53.158;6.766;2022-12-18T00:36:01;17.15;;;11.70;;
51814;SDS011;37874;53.158;6.766;2022-12-18T00:38:31;16.98;;;11.93;;
51814;SDS011;37874;53.158;6.766;2022-12-18T00:40:57;16.77;;;11.55;;
51814;SDS011;37874;53.158;6.766;2022-12-18T00:43:23;14.52;;;10.02;;
51814;SDS011;37874;53.158;6.766;2022-12-18T00:45:48;16.13;;;11.63;;
51814;SDS011;37874;53.158;6.766;2022-12-18T00:48:14;17.00;;;11.32;;
51814;SDS011;37874;53.158;6.766;2022-12-18T00:50:40;15.80;;;11.30;;
51814;SDS011;37874;53.158;6.766;2022-12-18T00:53:05;16.23;;;11.35;;
51814;SDS011;37874;53.158;6.766;2022-12-18T00:55:31;17.65;;;11.20;;
51814;SDS011;37874;53.158;6.766;2022-12-18T00:57:57;15.98;;;11.45;;
51814;SDS011;37874;53.158;6.766;2022-12-18T01:00:22;15.55;;;10.85;;
51814;SDS011;37874;53.158;6.766;2022-12-18T01:02:48;16.90;;;11.18;;
51814;SDS011;37874;53.158;6.766;2022-12-18T01:05:14;15.07;;;11.18;;
51814;SDS011;37874;53.158;6.766;2022-12-18T01:07:40;14.52;;;10.80;;
51814;SDS011;37874;53.158;6.766;2022-12-18T01:10:06;15.77;;;10.65;;
51814;SDS011;37874;53.158;6.766;2022-12-18T01:12:34;15.65;;;10.80;;
51814;SDS011;37874;53.158;6.766;2022-12-18T01:14:59;17.10;;;11.70;;
51814;SDS011;37874;53.158;6.766;2022-12-18T01:17:25;15.45;;;11.18;;
51814;SDS011;37874;53.158;6.766;2022-12-18T01:19:51;15.75;;;11.02;;
51814;SDS011;37874;53.158;6.766;2022-12-18T01:22:17;17.25;;;11.95;;
51814;SDS011;37874;53.158;6.766;2022-12-18T01:24:43;15.82;;;11.05;;
51814;SDS011;37874;53.158;6.766;2022-12-18T01:27:09;15.60;;;11.02;;
51814;SDS011;37874;53.158;6.766;2022-12-18T01:29:34;16.90;;;11.90;;
51814;SDS011;37874;53.158;6.766;2022-12-18T01:32:00;16.63;;;11.85;;
51814;SDS011;37874;53.158;6.766;2022-12-18T01:34:25;16.42;;;11.82;;
51814;SDS011;37874;53.158;6.766;2022-12-18T01:36:51;17.10;;;11.60;;
51814;SDS011;37874;53.158;6.766;2022-12-18T01:39:19;17.70;;;11.93;;
51814;SDS011;37874;53.158;6.766;2022-12-18T01:41:45;15.30;;;11.15;;
51814;SDS011;37874;53.158;6.766;2022-12-18T01:47:31;15.35;;;10.90;;
51814;SDS011;37874;53.158;6.766;2022-12-18T01:49:57;16.17;;;11.30;;
51814;SDS011;37874;53.158;6.766;2022-12-18T01:52:28;17.23;;;11.88;;
51814;SDS011;37874;53.158;6.766;2022-12-18T01:54:57;18.83;;;12.30;;
51814;SDS011;37874;53.158;6.766;2022-12-18T01:57:24;16.73;;;11.77;;
51814;SDS011;37874;53.158;6.766;2022-12-18T01:59:52;18.50;;;12.07;;
51814;SDS011;37874;53.158;6.766;2022-12-18T02:02:19;17.63;;;11.35;;
51814;SDS011;37874;53.158;6.766;2022-12-18T02:04:46;16.83;;;12.43;;
51814;SDS011;37874;53.158;6.766;2022-12-18T02:12:24;17.80;;;12.45;;
51814;SDS011;37874;53.158;6.766;2022-12-18T02:15:12;18.17;;;12.90;;
51814;SDS011;37874;53.158;6.766;2022-12-18T02:17:43;18.88;;;12.32;;
51814;SDS011;37874;53.158;6.766;2022-12-18T02:20:54;17.20;;;12.13;;
51814;SDS011;37874;53.158;6.766;2022-12-18T02:28:49;18.58;;;12.82;;
51814;SDS011;37874;53.158;6.766;2022-12-18T02:31:23;19.75;;;12.88;;
51814;SDS011;37874;53.158;6.766;2022-12-18T02:33:52;17.75;;;12.88;;
51814;SDS011;37874;53.158;6.766;2022-12-18T02:36:20;17.25;;;12.18;;
51814;SDS011;37874;53.158;6.766;2022-12-18T02:38:47;19.63;;;13.50;;
51814;SDS011;37874;53.158;6.766;2022-12-18T02:41:14;19.25;;;13.05;;
51814;SDS011;37874;53.158;6.766;2022-12-18T02:43:45;18.88;;;12.40;;
51814;SDS011;37874;53.158;6.766;2022-12-18T02:46:31;19.73;;;13.13;;
51814;SDS011;37874;53.158;6.766;2022-12-18T02:57:18;20.80;;;13.48;;
51814;SDS011;37874;53.158;6.766;2022-12-18T03:00:08;21.25;;;13.98;;
51814;SDS011;37874;53.158;6.766;2022-12-18T03:02:39;21.05;;;14.00;;
51814;SDS011;37874;53.158;6.766;2022-12-18T03:05:15;20.33;;;13.85;;
51814;SDS011;37874;53.158;6.766;2022-12-18T03:07:56;20.90;;;13.57;;
51814;SDS011;37874;53.158;6.766;2022-12-18T03:10:28;18.98;;;13.77;;
51814;SDS011;37874;53.158;6.766;2022-12-18T03:13:02;21.27;;;13.95;;
51814;SDS011;37874;53.158;6.766;2022-12-18T03:15:38;20.67;;;13.57;;
51814;SDS011;37874;53.158;6.766;2022-12-18T03:18:15;21.88;;;14.68;;
51814;SDS011;37874;53.158;6.766;2022-12-18T03:20:48;21.27;;;14.75;;
51814;SDS011;37874;53.158;6.766;2022-12-18T03:23:18;21.65;;;14.48;;
51814;SDS011;37874;53.158;6.766;2022-12-18T03:25:47;21.42;;;14.48;;
51814;SDS011;37874;53.158;6.766;2022-12-18T03:28:17;24.00;;;15.52;;
51814;SDS011;37874;53.158;6.766;2022-12-18T03:30:46;20.60;;;14.30;;
51814;SDS011;37874;53.158;6.766;2022-12-18T03:33:23;22.52;;;14.93;;
51814;SDS011;37874;53.158;6.766;2022-12-18T03:35:55;21.20;;;15.02;;
51814;SDS011;37874;53.158;6.766;2022-12-18T03:38:21;22.60;;;15.13;;
51814;SDS011;37874;53.158;6.766;2022-12-18T03:43:35;21.42;;;15.05;;
51814;SDS011;37874;53.158;6.766;2022-12-18T03:46:14;22.65;;;15.85;;
51814;SDS011;37874;53.158;6.766;2022-12-18T03:48:56;22.60;;;15.63;;
51814;SDS011;37874;53.158;6.766;2022-12-18T03:51:28;23.48;;;16.02;;
51814;SDS011;37874;53.158;6.766;2022-12-18T03:54:00;20.85;;;15.18;;
51814;SDS011;37874;53.158;6.766;2022-12-18T03:56:30;25.27;;;16.05;;
51814;SDS011;37874;53.158;6.766;2022-12-18T03:58:59;24.55;;;16.20;;
51814;SDS011;37874;53.158;6.766;2022-12-18T04:01:31;21.92;;;15.57;;
51814;SDS011;37874;53.158;6.766;2022-12-18T04:04:02;23.80;;;16.15;;
51814;SDS011;37874;53.158;6.766;2022-12-18T04:06:29;23.35;;;15.25;;
51814;SDS011;37874;53.158;6.766;2022-12-18T04:08:56;23.67;;;15.60;;
51814;SDS011;37874;53.158;6.766;2022-12-18T04:11:23;26.15;;;16.30;;
51814;SDS011;37874;53.158;6.766;2022-12-18T04:13:49;23.15;;;15.65;;
51814;SDS011;37874;53.158;6.766;2022-12-18T04:16:14;23.10;;;16.20;;
51814;SDS011;37874;53.158;6.766;2022-12-18T04:18:40;24.38;;;16.08;;
51814;SDS011;37874;53.158;6.766;2022-12-18T04:21:06;23.67;;;15.75;;
51814;SDS011;37874;53.158;6.766;2022-12-18T04:23:31;27.52;;;16.35;;
51814;SDS011;37874;53.158;6.766;2022-12-18T04:25:57;25.70;;;16.42;;
51814;SDS011;37874;53.158;6.766;2022-12-18T04:28:23;23.55;;;15.30;;
51814;SDS011;37874;53.158;6.766;2022-12-18T04:30:48;23.60;;;16.33;;
51814;SDS011;37874;53.158;6.766;2022-12-18T04:33:17;23.95;;;16.25;;
51814;SDS011;37874;53.158;6.766;2022-12-18T04:35:43;26.33;;;16.05;;
51814;SDS011;37874;53.158;6.766;2022-12-18T04:38:09;24.70;;;15.82;;
51814;SDS011;37874;53.158;6.766;2022-12-18T04:40:36;23.98;;;15.07;;
51814;SDS011;37874;53.158;6.766;2022-12-18T04:43:02;24.05;;;15.55;;
51814;SDS011;37874;53.158;6.766;2022-12-18T04:45:29;26.50;;;16.88;;
51814;SDS011;37874;53.158;6.766;2022-12-18T04:47:59;24.30;;;15.32;;
51814;SDS011;37874;53.158;6.766;2022-12-18T04:50:26;22.60;;;14.73;;
51814;SDS011;37874;53.158;6.766;2022-12-18T04:52:53;24.00;;;15.70;;
51814;SDS011;37874;53.158;6.766;2022-12-18T04:55:18;22.60;;;15.25;;
51814;SDS011;37874;53.158;6.766;2022-12-18T04:57:44;24.70;;;16.27;;
51814;SDS011;37874;53.158;6.766;2022-12-18T05:00:10;25.02;;;16.20;;
51814;SDS011;37874;53.158;6.766;2022-12-18T05:02:36;25.35;;;16.25;;
51814;SDS011;37874;53.158;6.766;2022-12-18T05:05:02;23.75;;;15.35;;
51814;SDS011;37874;53.158;6.766;2022-12-18T05:07:28;22.23;;;14.57;;
51814;SDS011;37874;53.158;6.766;2022-12-18T05:09:53;23.33;;;15.18;;
51814;SDS011;37874;53.158;6.766;2022-12-18T05:12:19;23.65;;;15.48;;
51814;SDS011;37874;53.158;6.766;2022-12-18T05:14:48;24.35;;;15.63;;
51814;SDS011;37874;53.158;6.766;2022-12-18T05:17:14;23.63;;;15.25;;
51814;SDS011;37874;53.158;6.766;2022-12-18T05:19:40;23.27;;;15.30;;
51814;SDS011;37874;53.158;6.766;2022-12-18T05:22:07;26.75;;;15.70;;
51814;SDS011;37874;53.158;6.766;2022-12-18T05:24:33;22.83;;;15.48;;
51814;SDS011;37874;53.158;6.766;2022-12-18T05:26:59;23.15;;;14.98;;
51814;SDS011;37874;53.158;6.766;2022-12-18T05:29:24;25.00;;;14.95;;
51814;SDS011;37874;53.158;6.766;2022-12-18T05:31:50;19.75;;;14.10;;
51814;SDS011;37874;53.158;6.766;2022-12-18T05:34:16;21.77;;;14.30;;
51814;SDS011;37874;53.158;6.766;2022-12-18T05:36:42;21.15;;;13.23;;
51814;SDS011;37874;53.158;6.766;2022-12-18T05:39:07;20.30;;;13.50;;
51814;SDS011;37874;53.158;6.766;2022-12-18T05:41:33;20.85;;;14.10;;
51814;SDS011;37874;53.158;6.766;2022-12-18T05:43:59;20.55;;;13.23;;
51814;SDS011;37874;53.158;6.766;2022-12-18T05:46:24;20.98;;;13.32;;
51814;SDS011;37874;53.158;6.766;2022-12-18T05:48:51;21.80;;;14.35;;
51814;SDS011;37874;53.158;6.766;2022-12-18T05:51:18;19.05;;;13.18;;
51814;SDS011;37874;53.158;6.766;2022-12-18T05:53:45;20.70;;;13.95;;
51814;SDS011;37874;53.158;6.766;2022-12-18T05:56:13;19.55;;;13.02;;
51814;SDS011;37874;53.158;6.766;2022-12-18T05:58:40;19.95;;;13.70;;
51814;SDS011;37874;53.158;6.766;2022-12-18T06:01:07;20.13;;;13.43;;
51814;SDS011;37874;53.158;6.766;2022-12-18T06:03:33;19.15;;;12.90;;
51814;SDS011;37874;53.158;6.766;2022-12-18T06:05:58;18.10;;;12.23;;
51814;SDS011;37874;53.158;6.766;2022-12-18T06:08:24;20.25;;;13.02;;
51814;SDS011;37874;53.158;6.766;2022-12-18T06:10:50;17.73;;;11.70;;
51814;SDS011;37874;53.158;6.766;2022-12-18T06:13:20;24.00;;;13.00;;
51814;SDS011;37874;53.158;6.766;2022-12-18T06:15:46;20.60;;;13.18;;
51814;SDS011;37874;53.158;6.766;2022-12-18T06:18:12;18.92;;;12.65;;
51814;SDS011;37874;53.158;6.766;2022-12-18T06:20:37;19.30;;;12.10;;
51814;SDS011;37874;53.158;6.766;2022-12-18T06:23:04;17.25;;;11.77;;
51814;SDS011;37874;53.158;6.766;2022-12-18T06:25:31;19.60;;;12.77;;
51814;SDS011;37874;53.158;6.766;2022-12-18T06:27:57;18.58;;;12.10;;
51814;SDS011;37874;53.158;6.766;2022-12-18T06:30:22;16.85;;;11.32;;
51814;SDS011;37874;53.158;6.766;2022-12-18T06:32:48;16.85;;;11.57;;
51814;SDS011;37874;53.158;6.766;2022-12-18T06:35:14;17.33;;;11.57;;
51814;SDS011;37874;53.158;6.766;2022-12-18T06:37:40;18.48;;;12.30;;
51814;SDS011;37874;53.158;6.766;2022-12-18T06:40:06;17.50;;;11.77;;
51814;SDS011;37874;53.158;6.766;2022-12-18T06:42:32;15.98;;;11.23;;
51814;SDS011;37874;53.158;6.766;2022-12-18T06:44:58;18.30;;;11.68;;
51814;SDS011;37874;53.158;6.766;2022-12-18T06:47:23;18.92;;;11.48;;
51814;SDS011;37874;53.158;6.766;2022-12-18T06:49:49;17.23;;;11.13;;
51814;SDS011;37874;53.158;6.766;2022-12-18T06:52:14;17.65;;;11.38;;
51814;SDS011;37874;53.158;6.766;2022-12-18T06:54:40;17.83;;;11.85;;
51814;SDS011;37874;53.158;6.766;2022-12-18T06:57:05;16.52;;;11.50;;
51814;SDS011;37874;53.158;6.766;2022-12-18T06:59:31;17.10;;;11.65;;
51814;SDS011;37874;53.158;6.766;2022-12-18T07:01:56;15.65;;;11.20;;
51814;SDS011;37874;53.158;6.766;2022-12-18T07:04:26;15.93;;;11.00;;
51814;SDS011;37874;53.158;6.766;2022-12-18T07:06:55;16.33;;;11.55;;
51814;SDS011;37874;53.158;6.766;2022-12-18T07:09:22;15.48;;;11.38;;
51814;SDS011;37874;53.158;6.766;2022-12-18T07:11:48;17.27;;;11.93;;
51814;SDS011;37874;53.158;6.766;2022-12-18T07:14:13;15.80;;;11.15;;
51814;SDS011;37874;53.158;6.766;2022-12-18T07:16:39;15.68;;;10.85;;
51814;SDS011;37874;53.158;6.766;2022-12-18T07:19:05;15.40;;;10.82;;
51814;SDS011;37874;53.158;6.766;2022-12-18T07:21:31;15.27;;;11.10;;
51814;SDS011;37874;53.158;6.766;2022-12-18T07:23:57;16.38;;;10.80;;
51814;SDS011;37874;53.158;6.766;2022-12-18T07:26:23;15.50;;;10.70;;
51814;SDS011;37874;53.158;6.766;2022-12-18T07:28:48;14.10;;;10.57;;
51814;SDS011;37874;53.158;6.766;2022-12-18T07:31:18;15.82;;;10.90;;
51814;SDS011;37874;53.158;6.766;2022-12-18T07:33:45;14.77;;;10.35;;
51814;SDS011;37874;53.158;6.766;2022-12-18T07:36:11;15.13;;;10.68;;
51814;SDS011;37874;53.158;6.766;2022-12-18T07:38:37;16.80;;;10.93;;
51814;SDS011;37874;53.158;6.766;2022-12-18T07:41:07;14.70;;;10.10;;
51814;SDS011;37874;53.158;6.766;2022-12-18T07:43:34;14.48;;;10.07;;
51814;SDS011;37874;53.158;6.766;2022-12-18T07:46:00;14.82;;;10.23;;
51814;SDS011;37874;53.158;6.766;2022-12-18T07:48:27;15.15;;;10.82;;
51814;SDS011;37874;53.158;6.766;2022-12-18T07:50:53;15.30;;;10.50;;
51814;SDS011;37874;53.158;6.766;2022-12-18T07:53:22;15.10;;;10.77;;
51814;SDS011;37874;53.158;6.766;2022-12-18T07:55:48;14.05;;;10.65;;
51814;SDS011;37874;53.158;6.766;2022-12-18T07:58:13;14.98;;;11.05;;
51814;SDS011;37874;53.158;6.766;2022-12-18T08:00:39;16.15;;;11.20;;
51814;SDS011;37874;53.158;6.766;2022-12-18T08:03:04;15.52;;;11.10;;
51814;SDS011;37874;53.158;6.766;2022-12-18T08:05:30;15.63;;;11.20;;
51814;SDS011;37874;53.158;6.766;2022-12-18T08:07:55;14.10;;;10.23;;
51814;SDS011;37874;53.158;6.766;2022-12-18T08:10:23;16.10;;;11.10;;
51814;SDS011;37874;53.158;6.766;2022-12-18T08:12:49;15.57;;;11.05;;
51814;SDS011;37874;53.158;6.766;2022-12-18T08:15:15;16.05;;;10.80;;
51814;SDS011;37874;53.158;6.766;2022-12-18T08:17:41;15.27;;;11.07;;
51814;SDS011;37874;53.158;6.766;2022-12-18T08:20:07;16.05;;;10.10;;
51814;SDS011;37874;53.158;6.766;2022-12-18T08:22:34;15.43;;;10.90;;
51814;SDS011;37874;53.158;6.766;2022-12-18T08:25:04;13.63;;;9.98;;
51814;SDS011;37874;53.158;6.766;2022-12-18T08:27:30;16.30;;;10.60;;
51814;SDS011;37874;53.158;6.766;2022-12-18T08:29:56;13.75;;;10.07;;
51814;SDS011;37874;53.158;6.766;2022-12-18T08:32:22;15.68;;;10.60;;
51814;SDS011;37874;53.158;6.766;2022-12-18T08:34:48;13.52;;;9.60;;
51814;SDS011;37874;53.158;6.766;2022-12-18T08:37:13;13.35;;;9.75;;
51814;SDS011;37874;53.158;6.766;2022-12-18T08:39:39;14.40;;;9.88;;
51814;SDS011;37874;53.158;6.766;2022-12-18T08:42:04;12.55;;;9.48;;
51814;SDS011;37874;53.158;6.766;2022-12-18T08:44:48;15.05;;;10.15;;
51814;SDS011;37874;53.158;6.766;2022-12-18T08:47:14;12.50;;;8.77;;
51814;SDS011;37874;53.158;6.766;2022-12-18T08:49:39;13.25;;;8.85;;
51814;SDS011;37874;53.158;6.766;2022-12-18T08:52:05;12.88;;;9.77;;
51814;SDS011;37874;53.158;6.766;2022-12-18T08:54:31;12.80;;;8.82;;
51814;SDS011;37874;53.158;6.766;2022-12-18T08:56:57;13.50;;;9.07;;
51814;SDS011;37874;53.158;6.766;2022-12-18T08:59:22;13.63;;;9.32;;
51814;SDS011;37874;53.158;6.766;2022-12-18T09:01:49;13.05;;;8.68;;
51814;SDS011;37874;53.158;6.766;2022-12-18T09:04:15;12.00;;;8.90;;
51814;SDS011;37874;53.158;6.766;2022-12-18T09:06:41;11.45;;;9.13;;
51814;SDS011;37874;53.158;6.766;2022-12-18T09:09:06;12.25;;;8.95;;
51814;SDS011;37874;53.158;6.766;2022-12-18T09:11:32;12.40;;;8.77;;
51814;SDS011;37874;53.158;6.766;2022-12-18T09:13:59;11.15;;;8.40;;
51814;SDS011;37874;53.158;6.766;2022-12-18T09:16:26;11.40;;;8.52;;
51814;SDS011;37874;53.158;6.766;2022-12-18T09:18:53;11.77;;;8.35;;
51814;SDS011;37874;53.158;6.766;2022-12-18T09:21:24;11.63;;;8.25;;
51814;SDS011;37874;53.158;6.766;2022-12-18T09:23:51;11.93;;;8.10;;
51814;SDS011;37874;53.158;6.766;2022-12-18T09:26:18;9.20;;;6.93;;
51814;SDS011;37874;53.158;6.766;2022-12-18T09:28:44;9.93;;;7.97;;
51814;SDS011;37874;53.158;6.766;2022-12-18T09:31:11;11.98;;;8.00;;
51814;SDS011;37874;53.158;6.766;2022-12-18T09:33:41;10.35;;;7.40;;
51814;SDS011;37874;53.158;6.766;2022-12-18T09:36:08;10.20;;;7.65;;
51814;SDS011;37874;53.158;6.766;2022-12-18T09:38:35;10.57;;;7.60;;
51814;SDS011;37874;53.158;6.766;2022-12-18T09:41:26;11.07;;;7.63;;
51814;SDS011;37874;53.158;6.766;2022-12-18T09:44:17;11.25;;;7.53;;
51814;SDS011;37874;53.158;6.766;2022-12-18T09:49:41;10.23;;;7.32;;
51814;SDS011;37874;53.158;6.766;2022-12-18T09:52:11;10.70;;;6.97;;
51814;SDS011;37874;53.158;6.766;2022-12-18T09:54:45;9.40;;;6.82;;
51814;SDS011;37874;53.158;6.766;2022-12-18T09:57:15;9.35;;;6.65;;
51814;SDS011;37874;53.158;6.766;2022-12-18T09:59:46;10.10;;;7.00;;
51814;SDS011;37874;53.158;6.766;2022-12-18T10:02:39;8.85;;;6.55;;
51814;SDS011;37874;53.158;6.766;2022-12-18T10:05:12;9.25;;;6.50;;
51814;SDS011;37874;53.158;6.766;2022-12-18T10:07:47;11.20;;;7.03;;
51814;SDS011;37874;53.158;6.766;2022-12-18T10:10:34;8.88;;;6.38;;
51814;SDS011;37874;53.158;6.766;2022-12-18T10:13:30;8.95;;;6.57;;
51814;SDS011;37874;53.158;6.766;2022-12-18T10:21:25;8.85;;;6.28;;
51814;SDS011;37874;53.158;6.766;2022-12-18T10:27:16;7.57;;;5.57;;
51814;SDS011;37874;53.158;6.766;2022-12-18T10:29:43;6.97;;;5.57;;
51814;SDS011;37874;53.158;6.766;2022-12-18T10:32:14;7.50;;;5.60;;
51814;SDS011;37874;53.158;6.766;2022-12-18T10:34:44;7.32;;;5.60;;
51814;SDS011;37874;53.158;6.766;2022-12-18T10:37:15;8.32;;;6.10;;
51814;SDS011;37874;53.158;6.766;2022-12-18T10:39:43;7.47;;;5.78;;
51814;SDS011;37874;53.158;6.766;2022-12-18T10:42:18;8.60;;;5.70;;
51814;SDS011;37874;53.158;6.766;2022-12-18T10:44:44;6.97;;;5.57;;
51814;SDS011;37874;53.158;6.766;2022-12-18T10:47:12;7.68;;;5.25;;
51814;SDS011;37874;53.158;6.766;2022-12-18T10:49:47;7.82;;;5.80;;
51814;SDS011;37874;53.158;6.766;2022-12-18T10:52:42;6.30;;;4.72;;
51814;SDS011;37874;53.158;6.766;2022-12-18T10:55:13;7.18;;;4.82;;
51814;SDS011;37874;53.158;6.766;2022-12-18T10:57:42;6.55;;;5.00;;
51814;SDS011;37874;53.158;6.766;2022-12-18T11:00:22;6.28;;;4.70;;
51814;SDS011;37874;53.158;6.766;2022-12-18T11:02:49;7.05;;;4.97;;
51814;SDS011;37874;53.158;6.766;2022-12-18T11:05:29;6.93;;;4.82;;
51814;SDS011;37874;53.158;6.766;2022-12-18T11:07:56;7.35;;;5.35;;
51814;SDS011;37874;53.158;6.766;2022-12-18T11:10:31;6.10;;;4.50;;
51814;SDS011;37874;53.158;6.766;2022-12-18T11:13:18;7.15;;;4.57;;
51814;SDS011;37874;53.158;6.766;2022-12-18T11:15:46;7.35;;;5.15;;
51814;SDS011;37874;53.158;6.766;2022-12-18T11:18:32;6.25;;;4.25;;
51814;SDS011;37874;53.158;6.766;2022-12-18T11:21:06;5.85;;;4.68;;
51814;SDS011;37874;53.158;6.766;2022-12-18T11:23:32;5.88;;;4.25;;
51814;SDS011;37874;53.158;6.766;2022-12-18T11:25:59;7.55;;;4.57;;
51814;SDS011;37874;53.158;6.766;2022-12-18T11:28:35;7.32;;;4.05;;
51814;SDS011;37874;53.158;6.766;2022-12-18T11:33:34;6.78;;;3.80;;
51814;SDS011;37874;53.158;6.766;2022-12-18T11:36:02;5.63;;;3.97;;
51814;SDS011;37874;53.158;6.766;2022-12-18T11:38:34;5.50;;;4.00;;
51814;SDS011;37874;53.158;6.766;2022-12-18T11:41:04;5.50;;;3.95;;
51814;SDS011;37874;53.158;6.766;2022-12-18T11:43:54;6.80;;;4.05;;
51814;SDS011;37874;53.158;6.766;2022-12-18T11:46:34;4.68;;;3.88;;
51814;SDS011;37874;53.158;6.766;2022-12-18T13:55:45;4.20;;;2.35;;
51814;SDS011;37874;53.158;6.766;2022-12-18T13:58:11;3.55;;;2.50;;
51814;SDS011;37874;53.158;6.766;2022-12-18T14:00:41;4.00;;;2.70;;
51814;SDS011;37874;53.158;6.766;2022-12-18T14:03:17;4.00;;;2.40;;
51814;SDS011;37874;53.158;6.766;2022-12-18T14:05:45;3.72;;;2.65;;
51814;SDS011;37874;53.158;6.766;2022-12-18T14:08:16;5.10;;;3.05;;
51814;SDS011;37874;53.158;6.766;2022-12-18T14:10:44;3.80;;;2.42;;
51814;SDS011;37874;53.158;6.766;2022-12-18T14:13:15;4.93;;;2.88;;
51814;SDS011;37874;53.158;6.766;2022-12-18T14:15:52;4.22;;;2.95;;
51814;SDS011;37874;53.158;6.766;2022-12-18T14:18:20;4.32;;;2.78;;
51814;SDS011;37874;53.158;6.766;2022-12-18T14:20:50;4.85;;;3.05;;
51814;SDS011;37874;53.158;6.766;2022-12-18T14:23:31;4.35;;;3.00;;
51814;SDS011;37874;53.158;6.766;2022-12-18T14:28:47;3.78;;;2.78;;
51814;SDS011;37874;53.158;6.766;2022-12-18T14:31:17;3.72;;;2.60;;
51814;SDS011;37874;53.158;6.766;2022-12-18T14:33:47;4.28;;;2.80;;
51814;SDS011;37874;53.158;6.766;2022-12-18T14:36:17;3.80;;;2.70;;
51814;SDS011;37874;53.158;6.766;2022-12-18T14:38:49;4.60;;;2.72;;
51814;SDS011;37874;53.158;6.766;2022-12-18T14:41:19;4.32;;;2.67;;
51814;SDS011;37874;53.158;6.766;2022-12-18T14:43:49;4.07;;;2.72;;
51814;SDS011;37874;53.158;6.766;2022-12-18T14:46:35;4.03;;;2.70;;
51814;SDS011;37874;53.158;6.766;2022-12-18T14:49:18;4.05;;;2.80;;
51814;SDS011;37874;53.158;6.766;2022-12-18T14:51:59;4.15;;;2.50;;
51814;SDS011;37874;53.158;6.766;2022-12-18T14:54:27;4.85;;;2.85;;
51814;SDS011;37874;53.158;6.766;2022-12-18T14:59:23;4.25;;;2.72;;
51814;SDS011;37874;53.158;6.766;2022-12-18T15:02:04;3.80;;;2.72;;
51814;SDS011;37874;53.158;6.766;2022-12-18T15:04:43;3.78;;;2.83;;
51814;SDS011;37874;53.158;6.766;2022-12-18T15:07:13;4.45;;;3.00;;
51814;SDS011;37874;53.158;6.766;2022-12-18T15:10:31;4.20;;;2.45;;
51814;SDS011;37874;53.158;6.766;2022-12-18T15:12:40;5.25;;;3.00;;
51814;SDS011;37874;53.158;6.766;2022-12-18T15:17:59;4.22;;;2.85;;
51814;SDS011;37874;53.158;6.766;2022-12-18T15:20:26;5.65;;;3.00;;
51814;SDS011;37874;53.158;6.766;2022-12-18T15:22:52;3.97;;;2.55;;
51814;SDS011;37874;53.158;6.766;2022-12-18T15:25:24;3.55;;;2.50;;
51814;SDS011;37874;53.158;6.766;2022-12-18T15:27:54;5.38;;;2.47;;
51814;SDS011;37874;53.158;6.766;2022-12-18T15:30:23;4.45;;;2.50;;
51814;SDS011;37874;53.158;6.766;2022-12-18T15:32:50;3.53;;;2.53;;
51814;SDS011;37874;53.158;6.766;2022-12-18T15:35:21;3.65;;;2.60;;
51814;SDS011;37874;53.158;6.766;2022-12-18T15:37:48;4.15;;;2.72;;
51814;SDS011;37874;53.158;6.766;2022-12-18T15:40:19;4.35;;;3.05;;
51814;SDS011;37874;53.158;6.766;2022-12-18T15:42:47;3.88;;;2.63;;
51814;SDS011;37874;53.158;6.766;2022-12-18T15:45:34;3.80;;;2.83;;
51814;SDS011;37874;53.158;6.766;2022-12-18T15:47:59;4.15;;;2.78;;
51814;SDS011;37874;53.158;6.766;2022-12-18T15:50:25;3.85;;;2.55;;
51814;SDS011;37874;53.158;6.766;2022-12-18T15:52:52;3.95;;;2.90;;
51814;SDS011;37874;53.158;6.766;2022-12-18T15:55:20;4.35;;;2.88;;
51814;SDS011;37874;53.158;6.766;2022-12-18T15:58:07;4.22;;;2.70;;
51814;SDS011;37874;53.158;6.766;2022-12-18T16:00:35;5.00;;;3.05;;
51814;SDS011;37874;53.158;6.766;2022-12-18T16:03:03;3.83;;;3.00;;
51814;SDS011;37874;53.158;6.766;2022-12-18T16:05:29;4.75;;;2.58;;
51814;SDS011;37874;53.158;6.766;2022-12-18T16:07:55;4.70;;;3.20;;
51814;SDS011;37874;53.158;6.766;2022-12-18T16:10:21;4.05;;;2.95;;
51814;SDS011;37874;53.158;6.766;2022-12-18T16:12:48;4.47;;;3.03;;
51814;SDS011;37874;53.158;6.766;2022-12-18T16:15:14;4.70;;;3.40;;
51814;SDS011;37874;53.158;6.766;2022-12-18T16:17:41;3.78;;;2.67;;
51814;SDS011;37874;53.158;6.766;2022-12-18T16:20:17;5.28;;;2.88;;
51814;SDS011;37874;53.158;6.766;2022-12-18T16:22:45;5.07;;;3.25;;
51814;SDS011;37874;53.158;6.766;2022-12-18T16:25:27;5.35;;;3.00;;
51814;SDS011;37874;53.158;6.766;2022-12-18T16:27:53;3.92;;;2.90;;
51814;SDS011;37874;53.158;6.766;2022-12-18T16:30:22;4.68;;;2.83;;
51814;SDS011;37874;53.158;6.766;2022-12-18T16:32:53;4.32;;;2.90;;
51814;SDS011;37874;53.158;6.766;2022-12-18T16:35:20;5.22;;;3.50;;
51814;SDS011;37874;53.158;6.766;2022-12-18T16:37:45;5.45;;;3.50;;
51814;SDS011;37874;53.158;6.766;2022-12-18T16:40:13;5.25;;;3.30;;
51814;SDS011;37874;53.158;6.766;2022-12-18T16:42:40;6.68;;;4.55;;
51814;SDS011;37874;53.158;6.766;2022-12-18T16:45:08;8.93;;;7.13;;
51814;SDS011;37874;53.158;6.766;2022-12-18T16:47:35;8.85;;;7.63;;
51814;SDS011;37874;53.158;6.766;2022-12-18T16:50:01;8.70;;;7.15;;
51814;SDS011;37874;53.158;6.766;2022-12-18T16:52:27;9.10;;;6.90;;
51814;SDS011;37874;53.158;6.766;2022-12-18T16:54:54;8.20;;;6.85;;
51814;SDS011;37874;53.158;6.766;2022-12-18T16:57:20;8.00;;;6.25;;
51814;SDS011;37874;53.158;6.766;2022-12-18T16:59:46;8.32;;;5.97;;
51814;SDS011;37874;53.158;6.766;2022-12-18T17:02:16;7.55;;;5.63;;
51814;SDS011;37874;53.158;6.766;2022-12-18T17:04:45;6.03;;;5.25;;
51814;SDS011;37874;53.158;6.766;2022-12-18T17:07:11;8.35;;;4.90;;
51814;SDS011;37874;53.158;6.766;2022-12-18T17:09:37;6.65;;;5.47;;
51814;SDS011;37874;53.158;6.766;2022-12-18T17:12:04;6.63;;;4.90;;
51814;SDS011;37874;53.158;6.766;2022-12-18T17:14:30;5.47;;;4.57;;
51814;SDS011;37874;53.158;6.766;2022-12-18T17:16:57;5.43;;;4.50;;
51814;SDS011;37874;53.158;6.766;2022-12-18T17:19:24;5.38;;;4.50;;
51814;SDS011;37874;53.158;6.766;2022-12-18T17:21:50;6.57;;;4.82;;
51814;SDS011;37874;53.158;6.766;2022-12-18T17:24:16;5.28;;;4.05;;
51814;SDS011;37874;53.158;6.766;2022-12-18T17:26:42;4.97;;;3.72;;
51814;SDS011;37874;53.158;6.766;2022-12-18T17:29:11;4.78;;;3.70;;
51814;SDS011;37874;53.158;6.766;2022-12-18T17:31:39;5.32;;;3.97;;
51814;SDS011;37874;53.158;6.766;2022-12-18T17:34:05;5.13;;;3.90;;
51814;SDS011;37874;53.158;6.766;2022-12-18T17:36:30;5.80;;;3.75;;